sensor_id;sensor_type;location;lat;lon;timestamp;temperature;humidity
12827;DHT22;66927;48.812;9.118;2023-05-10T00:01:02;16.50;99.90
12827;DHT22;66927;48.812;9.118;2023-05-10T00:03:28;16.50;99.90
12827;DHT22;66927;48.812;9.118;2023-05-10T00:05:54;16.40;99.90
12827;DHT22;66927;48.812;9.118;2023-05-10T00:08:19;16.30;99.90
12827;DHT22;66927;48.812;9.118;2023-05-10T00:10:45;16.20;99.90
12827;DHT22;66927;48.812;9.118;2023-05-10T00:13:11;16.00;99.90
12827;DHT22;66927;48.812;9.118;2023-05-10T00:15:37;15.80;99.90
12827;DHT22;66927;48.812;9.118;2023-05-10T00:18:03;15.80;99.90
12827;DHT22;66927;48.812;9.118;2023-05-10T00:20:28;15.80;99.90
12827;DHT22;66927;48.812;9.118;2023-05-10T00:22:54;15.60;99.90
12827;DHT22;66927;48.812;9.118;2023-05-10T00:25:20;15.70;99.90
12827;DHT22;66927;48.812;9.118;2023-05-10T00:27:47;15.60;99.90
12827;DHT22;66927;48.812;9.118;2023-05-10T00:30:13;15.60;99.90
12827;DHT22;66927;48.812;9.118;2023-05-10T00:32:38;15.50;99.90
12827;DHT22;66927;48.812;9.118;2023-05-10T00:35:04;15.40;99.90
12827;DHT22;66927;48.812;9.118;2023-05-10T00:37:30;15.40;99.90
12827;DHT22;66927;48.812;9.118;2023-05-10T00:40:00;15.40;99.90
12827;DHT22;66927;48.812;9.118;2023-05-10T00:42:26;15.30;99.90
12827;DHT22;66927;48.812;9.118;2023-05-10T00:44:54;15.30;99.90
12827;DHT22;66927;48.812;9.118;2023-05-10T00:47:20;15.40;99.90
12827;DHT22;66927;48.812;9.118;2023-05-10T00:49:45;15.30;99.90
12827;DHT22;66927;48.812;9.118;2023-05-10T00:52:11;15.40;99.90
12827;DHT22;66927;48.812;9.118;2023-05-10T00:54:38;15.40;99.90
12827;DHT22;66927;48.812;9.118;2023-05-10T00:57:04;15.50;99.90
12827;DHT22;66927;48.812;9.118;2023-05-10T00:59:30;15.50;99.90
12827;DHT22;66927;48.812;9.118;2023-05-10T01:01:56;15.50;99.90
12827;DHT22;66927;48.812;9.118;2023-05-10T01:04:23;15.50;99.90
12827;DHT22;66927;48.812;9.118;2023-05-10T01:06:52;15.50;99.90
12827;DHT22;66927;48.812;9.118;2023-05-10T01:09:20;15.50;99.90
12827;DHT22;66927;48.812;9.118;2023-05-10T01:11:46;15.50;99.90
12827;DHT22;66927;48.812;9.118;2023-05-10T01:14:12;15.30;99.90
12827;DHT22;66927;48.812;9.118;2023-05-10T01:16:39;15.20;99.90
12827;DHT22;66927;48.812;9.118;2023-05-10T01:19:24;15.20;99.90
12827;DHT22;66927;48.812;9.118;2023-05-10T01:38:13;15.10;99.90
12827;DHT22;66927;48.812;9.118;2023-05-10T01:43:30;15.20;99.90
12827;DHT22;66927;48.812;9.118;2023-05-10T01:46:07;15.20;99.90
12827;DHT22;66927;48.812;9.118;2023-05-10T01:48:47;15.20;99.90
12827;DHT22;66927;48.812;9.118;2023-05-10T01:51:19;15.20;99.90
12827;DHT22;66927;48.812;9.118;2023-05-10T01:53:48;15.20;99.90
12827;DHT22;66927;48.812;9.118;2023-05-10T01:56:15;15.00;99.90
12827;DHT22;66927;48.812;9.118;2023-05-10T01:58:43;15.10;99.90
12827;DHT22;66927;48.812;9.118;2023-05-10T02:01:12;15.10;99.90
12827;DHT22;66927;48.812;9.118;2023-05-10T02:03:39;15.20;99.90
12827;DHT22;66927;48.812;9.118;2023-05-10T02:06:06;15.20;99.90
12827;DHT22;66927;48.812;9.118;2023-05-10T02:08:35;15.20;99.90
12827;DHT22;66927;48.812;9.118;2023-05-10T02:11:02;15.30;99.90
12827;DHT22;66927;48.812;9.118;2023-05-10T02:13:29;15.30;99.90
12827;DHT22;66927;48.812;9.118;2023-05-10T02:15:58;15.40;99.90
12827;DHT22;66927;48.812;9.118;2023-05-10T02:18:25;15.40;99.90
12827;DHT22;66927;48.812;9.118;2023-05-10T02:20:53;15.40;99.90
12827;DHT22;66927;48.812;9.118;2023-05-10T02:23:20;15.40;99.90
12827;DHT22;66927;48.812;9.118;2023-05-10T02:25:48;15.40;99.90
12827;DHT22;66927;48.812;9.118;2023-05-10T02:28:15;15.20;99.90
12827;DHT22;66927;48.812;9.118;2023-05-10T02:30:43;15.30;99.90
12827;DHT22;66927;48.812;9.118;2023-05-10T02:33:09;15.30;99.90
12827;DHT22;66927;48.812;9.118;2023-05-10T02:35:37;15.30;99.90
12827;DHT22;66927;48.812;9.118;2023-05-10T02:38:04;15.30;99.90
12827;DHT22;66927;48.812;9.118;2023-05-10T02:40:30;15.30;99.90
12827;DHT22;66927;48.812;9.118;2023-05-10T02:42:57;15.30;99.90
12827;DHT22;66927;48.812;9.118;2023-05-10T02:45:27;15.30;99.90
12827;DHT22;66927;48.812;9.118;2023-05-10T02:47:53;15.30;99.90
12827;DHT22;66927;48.812;9.118;2023-05-10T02:50:20;15.30;99.90
12827;DHT22;66927;48.812;9.118;2023-05-10T02:52:49;15.30;99.90
12827;DHT22;66927;48.812;9.118;2023-05-10T02:55:21;15.40;99.90
12827;DHT22;66927;48.812;9.118;2023-05-10T02:57:59;15.40;99.90
12827;DHT22;66927;48.812;9.118;2023-05-10T03:00:25;15.40;99.90
12827;DHT22;66927;48.812;9.118;2023-05-10T03:02:51;15.40;99.90
12827;DHT22;66927;48.812;9.118;2023-05-10T03:05:17;15.40;99.90
12827;DHT22;66927;48.812;9.118;2023-05-10T03:07:43;15.40;99.90
12827;DHT22;66927;48.812;9.118;2023-05-10T03:10:10;15.40;99.90
12827;DHT22;66927;48.812;9.118;2023-05-10T03:15:55;15.40;99.90
12827;DHT22;66927;48.812;9.118;2023-05-10T03:18:29;15.40;99.90
12827;DHT22;66927;48.812;9.118;2023-05-10T03:21:03;15.40;99.90
12827;DHT22;66927;48.812;9.118;2023-05-10T03:23:43;15.30;99.90
12827;DHT22;66927;48.812;9.118;2023-05-10T03:26:11;15.20;99.90
12827;DHT22;66927;48.812;9.118;2023-05-10T03:28:41;15.20;99.90
12827;DHT22;66927;48.812;9.118;2023-05-10T03:31:07;15.20;99.90
12827;DHT22;66927;48.812;9.118;2023-05-10T03:33:33;15.30;99.90
12827;DHT22;66927;48.812;9.118;2023-05-10T03:35:59;15.30;99.90
12827;DHT22;66927;48.812;9.118;2023-05-10T03:38:24;15.20;99.90
12827;DHT22;66927;48.812;9.118;2023-05-10T03:40:50;15.30;99.90
12827;DHT22;66927;48.812;9.118;2023-05-10T03:43:16;15.20;99.90
12827;DHT22;66927;48.812;9.118;2023-05-10T03:45:41;15.30;99.90
12827;DHT22;66927;48.812;9.118;2023-05-10T03:48:07;15.20;99.90
12827;DHT22;66927;48.812;9.118;2023-05-10T03:50:33;15.20;99.90
12827;DHT22;66927;48.812;9.118;2023-05-10T03:52:58;15.20;99.90
12827;DHT22;66927;48.812;9.118;2023-05-10T03:55:24;15.20;99.90
12827;DHT22;66927;48.812;9.118;2023-05-10T03:57:50;15.20;99.90
12827;DHT22;66927;48.812;9.118;2023-05-10T04:00:16;15.30;99.90
12827;DHT22;66927;48.812;9.118;2023-05-10T04:02:42;15.30;99.90
12827;DHT22;66927;48.812;9.118;2023-05-10T04:05:08;15.40;99.90
12827;DHT22;66927;48.812;9.118;2023-05-10T04:07:34;15.30;99.90
12827;DHT22;66927;48.812;9.118;2023-05-10T04:10:00;15.20;99.90
12827;DHT22;66927;48.812;9.118;2023-05-10T04:12:25;15.00;99.90
12827;DHT22;66927;48.812;9.118;2023-05-10T04:14:51;15.00;99.90
12827;DHT22;66927;48.812;9.118;2023-05-10T04:17:17;15.10;99.90
12827;DHT22;66927;48.812;9.118;2023-05-10T04:19:42;15.10;99.90
12827;DHT22;66927;48.812;9.118;2023-05-10T04:22:08;15.00;99.90
12827;DHT22;66927;48.812;9.118;2023-05-10T04:24:34;15.10;99.90
12827;DHT22;66927;48.812;9.118;2023-05-10T04:26:59;15.10;99.90
12827;DHT22;66927;48.812;9.118;2023-05-10T04:29:26;15.10;99.90
12827;DHT22;66927;48.812;9.118;2023-05-10T04:31:52;15.10;99.90
12827;DHT22;66927;48.812;9.118;2023-05-10T04:34:20;15.00;99.90
12827;DHT22;66927;48.812;9.118;2023-05-10T04:36:46;15.00;99.90
12827;DHT22;66927;48.812;9.118;2023-05-10T04:39:12;15.10;99.90
12827;DHT22;66927;48.812;9.118;2023-05-10T04:41:39;15.10;99.90
12827;DHT22;66927;48.812;9.118;2023-05-10T04:44:05;15.10;99.90
12827;DHT22;66927;48.812;9.118;2023-05-10T04:46:30;15.10;99.90
12827;DHT22;66927;48.812;9.118;2023-05-10T04:48:56;15.10;99.90
12827;DHT22;66927;48.812;9.118;2023-05-10T04:51:22;15.20;99.90
12827;DHT22;66927;48.812;9.118;2023-05-10T04:53:47;15.20;99.90
12827;DHT22;66927;48.812;9.118;2023-05-10T04:56:13;15.20;99.90
12827;DHT22;66927;48.812;9.118;2023-05-10T04:58:39;15.20;99.90
12827;DHT22;66927;48.812;9.118;2023-05-10T05:01:05;15.30;99.90
12827;DHT22;66927;48.812;9.118;2023-05-10T05:03:32;15.30;99.90
12827;DHT22;66927;48.812;9.118;2023-05-10T05:05:58;15.30;99.90
12827;DHT22;66927;48.812;9.118;2023-05-10T05:08:23;15.30;99.90
12827;DHT22;66927;48.812;9.118;2023-05-10T05:10:50;15.30;99.90
12827;DHT22;66927;48.812;9.118;2023-05-10T05:13:15;15.30;99.90
12827;DHT22;66927;48.812;9.118;2023-05-10T05:15:41;15.30;99.90
12827;DHT22;66927;48.812;9.118;2023-05-10T05:18:07;15.30;99.90
12827;DHT22;66927;48.812;9.118;2023-05-10T05:20:34;15.30;99.90
12827;DHT22;66927;48.812;9.118;2023-05-10T05:23:01;15.30;99.90
12827;DHT22;66927;48.812;9.118;2023-05-10T05:25:28;15.30;99.90
12827;DHT22;66927;48.812;9.118;2023-05-10T05:27:54;15.30;99.90
12827;DHT22;66927;48.812;9.118;2023-05-10T05:30:21;15.30;99.90
12827;DHT22;66927;48.812;9.118;2023-05-10T05:32:47;15.30;99.90
12827;DHT22;66927;48.812;9.118;2023-05-10T05:35:33;15.20;99.90
12827;DHT22;66927;48.812;9.118;2023-05-10T05:38:00;15.30;99.90
12827;DHT22;66927;48.812;9.118;2023-05-10T05:40:25;15.30;99.90
12827;DHT22;66927;48.812;9.118;2023-05-10T05:42:54;15.30;99.90
12827;DHT22;66927;48.812;9.118;2023-05-10T05:45:19;15.30;99.90
12827;DHT22;66927;48.812;9.118;2023-05-10T05:47:46;15.40;99.90
12827;DHT22;66927;48.812;9.118;2023-05-10T05:50:14;15.40;99.90
12827;DHT22;66927;48.812;9.118;2023-05-10T05:52:40;15.30;99.90
12827;DHT22;66927;48.812;9.118;2023-05-10T05:55:11;15.20;99.90
12827;DHT22;66927;48.812;9.118;2023-05-10T05:57:37;15.00;99.90
12827;DHT22;66927;48.812;9.118;2023-05-10T06:00:04;15.30;99.90
12827;DHT22;66927;48.812;9.118;2023-05-10T06:02:31;15.20;99.90
12827;DHT22;66927;48.812;9.118;2023-05-10T06:04:56;15.30;99.90
12827;DHT22;66927;48.812;9.118;2023-05-10T06:07:22;15.40;99.90
12827;DHT22;66927;48.812;9.118;2023-05-10T06:09:48;15.40;99.90
12827;DHT22;66927;48.812;9.118;2023-05-10T06:12:14;15.50;99.90
12827;DHT22;66927;48.812;9.118;2023-05-10T06:14:39;15.20;99.90
12827;DHT22;66927;48.812;9.118;2023-05-10T06:17:05;15.20;99.90
12827;DHT22;66927;48.812;9.118;2023-05-10T06:19:32;15.20;99.90
12827;DHT22;66927;48.812;9.118;2023-05-10T06:21:57;15.20;99.90
12827;DHT22;66927;48.812;9.118;2023-05-10T06:24:23;15.10;99.90
12827;DHT22;66927;48.812;9.118;2023-05-10T06:26:49;15.10;99.90
12827;DHT22;66927;48.812;9.118;2023-05-10T06:29:15;15.20;99.90
12827;DHT22;66927;48.812;9.118;2023-05-10T06:31:41;15.20;99.90
12827;DHT22;66927;48.812;9.118;2023-05-10T06:34:06;15.20;99.90
12827;DHT22;66927;48.812;9.118;2023-05-10T06:36:33;15.20;99.90
12827;DHT22;66927;48.812;9.118;2023-05-10T06:38:59;15.20;99.90
12827;DHT22;66927;48.812;9.118;2023-05-10T06:41:25;15.10;99.90
12827;DHT22;66927;48.812;9.118;2023-05-10T06:43:50;15.10;99.90
12827;DHT22;66927;48.812;9.118;2023-05-10T06:46:16;15.10;99.90
12827;DHT22;66927;48.812;9.118;2023-05-10T06:48:42;15.00;99.90
12827;DHT22;66927;48.812;9.118;2023-05-10T06:51:07;15.00;99.90
12827;DHT22;66927;48.812;9.118;2023-05-10T06:53:33;14.90;99.90
12827;DHT22;66927;48.812;9.118;2023-05-10T06:55:59;14.90;99.90
12827;DHT22;66927;48.812;9.118;2023-05-10T06:58:24;14.80;99.90
12827;DHT22;66927;48.812;9.118;2023-05-10T07:00:50;14.80;99.90
12827;DHT22;66927;48.812;9.118;2023-05-10T07:03:16;14.80;99.90
12827;DHT22;66927;48.812;9.118;2023-05-10T07:05:42;15.00;99.90
12827;DHT22;66927;48.812;9.118;2023-05-10T07:08:07;14.80;99.90
12827;DHT22;66927;48.812;9.118;2023-05-10T07:10:34;14.80;99.90
12827;DHT22;66927;48.812;9.118;2023-05-10T07:13:00;14.90;99.90
12827;DHT22;66927;48.812;9.118;2023-05-10T07:15:26;14.90;99.90
12827;DHT22;66927;48.812;9.118;2023-05-10T07:17:52;14.90;99.90
12827;DHT22;66927;48.812;9.118;2023-05-10T07:20:18;14.90;99.90
12827;DHT22;66927;48.812;9.118;2023-05-10T07:22:44;14.90;99.90
12827;DHT22;66927;48.812;9.118;2023-05-10T07:25:09;14.90;99.90
12827;DHT22;66927;48.812;9.118;2023-05-10T07:27:36;14.90;99.90
12827;DHT22;66927;48.812;9.118;2023-05-10T07:30:01;15.00;99.90
12827;DHT22;66927;48.812;9.118;2023-05-10T07:32:27;14.90;99.90
12827;DHT22;66927;48.812;9.118;2023-05-10T07:34:53;15.00;99.90
12827;DHT22;66927;48.812;9.118;2023-05-10T07:37:19;15.00;99.90
12827;DHT22;66927;48.812;9.118;2023-05-10T07:39:45;15.00;99.90
12827;DHT22;66927;48.812;9.118;2023-05-10T07:42:10;15.00;99.90
12827;DHT22;66927;48.812;9.118;2023-05-10T07:44:36;15.10;99.90
12827;DHT22;66927;48.812;9.118;2023-05-10T07:47:02;15.20;99.90
12827;DHT22;66927;48.812;9.118;2023-05-10T07:49:27;15.10;99.90
12827;DHT22;66927;48.812;9.118;2023-05-10T07:51:53;15.20;99.90
12827;DHT22;66927;48.812;9.118;2023-05-10T07:54:18;15.20;99.90
12827;DHT22;66927;48.812;9.118;2023-05-10T07:56:44;15.20;99.90
12827;DHT22;66927;48.812;9.118;2023-05-10T07:59:15;15.10;99.90
12827;DHT22;66927;48.812;9.118;2023-05-10T08:01:41;15.10;99.90
12827;DHT22;66927;48.812;9.118;2023-05-10T08:04:07;15.10;99.90
12827;DHT22;66927;48.812;9.118;2023-05-10T08:06:34;15.20;99.90
12827;DHT22;66927;48.812;9.118;2023-05-10T08:09:00;15.20;99.90
12827;DHT22;66927;48.812;9.118;2023-05-10T08:11:26;15.10;99.90
12827;DHT22;66927;48.812;9.118;2023-05-10T08:13:53;15.10;99.90
12827;DHT22;66927;48.812;9.118;2023-05-10T08:16:19;15.10;99.90
12827;DHT22;66927;48.812;9.118;2023-05-10T08:18:46;15.20;99.90
12827;DHT22;66927;48.812;9.118;2023-05-10T08:21:12;15.10;99.90
12827;DHT22;66927;48.812;9.118;2023-05-10T08:23:39;15.20;99.90
12827;DHT22;66927;48.812;9.118;2023-05-10T08:26:04;15.20;99.90
12827;DHT22;66927;48.812;9.118;2023-05-10T08:28:30;15.20;99.90
12827;DHT22;66927;48.812;9.118;2023-05-10T08:30:56;15.20;99.90
12827;DHT22;66927;48.812;9.118;2023-05-10T08:33:22;15.20;99.90
12827;DHT22;66927;48.812;9.118;2023-05-10T08:35:48;15.20;99.90
12827;DHT22;66927;48.812;9.118;2023-05-10T08:38:14;15.10;99.90
12827;DHT22;66927;48.812;9.118;2023-05-10T08:40:44;15.20;99.90
12827;DHT22;66927;48.812;9.118;2023-05-10T08:43:13;15.20;99.90
12827;DHT22;66927;48.812;9.118;2023-05-10T08:45:43;15.20;99.90
12827;DHT22;66927;48.812;9.118;2023-05-10T08:48:12;15.20;99.90
12827;DHT22;66927;48.812;9.118;2023-05-10T08:50:41;15.20;99.90
12827;DHT22;66927;48.812;9.118;2023-05-10T08:53:12;15.30;99.90
12827;DHT22;66927;48.812;9.118;2023-05-10T08:55:39;15.40;99.90
12827;DHT22;66927;48.812;9.118;2023-05-10T08:58:06;15.50;99.90
12827;DHT22;66927;48.812;9.118;2023-05-10T09:00:32;15.50;99.90
12827;DHT22;66927;48.812;9.118;2023-05-10T09:02:59;15.50;99.90
12827;DHT22;66927;48.812;9.118;2023-05-10T09:05:25;15.50;99.90
12827;DHT22;66927;48.812;9.118;2023-05-10T09:07:51;15.40;99.90
12827;DHT22;66927;48.812;9.118;2023-05-10T09:10:17;15.50;99.90
12827;DHT22;66927;48.812;9.118;2023-05-10T09:12:44;15.50;99.90
12827;DHT22;66927;48.812;9.118;2023-05-10T09:15:11;15.60;99.90
12827;DHT22;66927;48.812;9.118;2023-05-10T09:17:38;15.50;99.90
12827;DHT22;66927;48.812;9.118;2023-05-10T09:20:06;15.50;99.90
12827;DHT22;66927;48.812;9.118;2023-05-10T09:22:33;15.50;99.90
12827;DHT22;66927;48.812;9.118;2023-05-10T09:25:13;15.50;99.90
12827;DHT22;66927;48.812;9.118;2023-05-10T09:27:40;15.50;99.90
12827;DHT22;66927;48.812;9.118;2023-05-10T09:30:07;15.50;99.90
12827;DHT22;66927;48.812;9.118;2023-05-10T09:32:41;15.50;99.90
12827;DHT22;66927;48.812;9.118;2023-05-10T09:35:18;15.60;99.90
12827;DHT22;66927;48.812;9.118;2023-05-10T09:37:47;15.60;99.90
12827;DHT22;66927;48.812;9.118;2023-05-10T09:42:55;15.70;99.90
12827;DHT22;66927;48.812;9.118;2023-05-10T09:45:30;15.70;99.90
12827;DHT22;66927;48.812;9.118;2023-05-10T09:47:57;15.70;99.90
12827;DHT22;66927;48.812;9.118;2023-05-10T09:50:23;15.80;99.90
12827;DHT22;66927;48.812;9.118;2023-05-10T09:52:57;15.80;99.90
12827;DHT22;66927;48.812;9.118;2023-05-10T09:55:44;15.80;99.90
12827;DHT22;66927;48.812;9.118;2023-05-10T09:58:12;15.80;99.90
12827;DHT22;66927;48.812;9.118;2023-05-10T10:00:39;15.80;99.90
12827;DHT22;66927;48.812;9.118;2023-05-10T10:03:06;15.70;99.90
12827;DHT22;66927;48.812;9.118;2023-05-10T10:05:41;15.80;99.90
12827;DHT22;66927;48.812;9.118;2023-05-10T10:08:10;15.80;99.90
12827;DHT22;66927;48.812;9.118;2023-05-10T10:10:36;15.80;99.90
12827;DHT22;66927;48.812;9.118;2023-05-10T10:13:02;15.70;99.90
12827;DHT22;66927;48.812;9.118;2023-05-10T10:15:28;15.80;99.90
12827;DHT22;66927;48.812;9.118;2023-05-10T10:17:54;15.80;99.90
12827;DHT22;66927;48.812;9.118;2023-05-10T10:20:22;15.90;99.90
12827;DHT22;66927;48.812;9.118;2023-05-10T10:22:49;16.00;99.90
12827;DHT22;66927;48.812;9.118;2023-05-10T10:25:16;16.10;99.90
12827;DHT22;66927;48.812;9.118;2023-05-10T10:35:16;16.30;99.90
12827;DHT22;66927;48.812;9.118;2023-05-10T10:37:47;16.30;99.90
12827;DHT22;66927;48.812;9.118;2023-05-10T10:42:52;16.40;99.90
12827;DHT22;66927;48.812;9.118;2023-05-10T10:45:19;16.40;99.90
12827;DHT22;66927;48.812;9.118;2023-05-10T10:47:45;16.30;99.90
12827;DHT22;66927;48.812;9.118;2023-05-10T10:50:11;16.30;99.90
12827;DHT22;66927;48.812;9.118;2023-05-10T10:52:42;16.30;99.90
12827;DHT22;66927;48.812;9.118;2023-05-10T10:55:09;16.30;99.90
12827;DHT22;66927;48.812;9.118;2023-05-10T11:00:57;16.10;99.90
12827;DHT22;66927;48.812;9.118;2023-05-10T11:03:17;15.90;99.90
12827;DHT22;66927;48.812;9.118;2023-05-10T11:05:50;15.70;99.90
12827;DHT22;66927;48.812;9.118;2023-05-10T11:13:32;15.30;99.90
12827;DHT22;66927;48.812;9.118;2023-05-10T11:15:59;15.20;99.90
12827;DHT22;66927;48.812;9.118;2023-05-10T11:18:37;15.30;99.90
12827;DHT22;66927;48.812;9.118;2023-05-10T11:21:03;15.40;99.90
12827;DHT22;66927;48.812;9.118;2023-05-10T11:23:32;15.60;99.90
12827;DHT22;66927;48.812;9.118;2023-05-10T11:26:00;15.70;99.90
12827;DHT22;66927;48.812;9.118;2023-05-10T11:28:27;15.90;99.90
12827;DHT22;66927;48.812;9.118;2023-05-10T11:30:54;16.10;99.90
12827;DHT22;66927;48.812;9.118;2023-05-10T11:33:20;16.10;99.90
12827;DHT22;66927;48.812;9.118;2023-05-10T11:35:46;16.20;99.90
12827;DHT22;66927;48.812;9.118;2023-05-10T11:38:13;16.20;99.90
12827;DHT22;66927;48.812;9.118;2023-05-10T11:40:40;16.10;99.90
12827;DHT22;66927;48.812;9.118;2023-05-10T11:43:06;16.00;99.90
12827;DHT22;66927;48.812;9.118;2023-05-10T11:45:32;15.90;99.90
12827;DHT22;66927;48.812;9.118;2023-05-10T11:47:59;15.90;99.90
12827;DHT22;66927;48.812;9.118;2023-05-10T11:50:25;15.90;99.90
12827;DHT22;66927;48.812;9.118;2023-05-10T11:52:55;15.80;99.90
12827;DHT22;66927;48.812;9.118;2023-05-10T11:55:21;15.60;99.90
12827;DHT22;66927;48.812;9.118;2023-05-10T11:57:47;15.50;99.90
12827;DHT22;66927;48.812;9.118;2023-05-10T12:00:14;15.50;99.90
12827;DHT22;66927;48.812;9.118;2023-05-10T12:02:40;15.60;99.90
12827;DHT22;66927;48.812;9.118;2023-05-10T12:05:06;15.70;99.90
12827;DHT22;66927;48.812;9.118;2023-05-10T12:07:32;15.70;99.90
12827;DHT22;66927;48.812;9.118;2023-05-10T12:10:12;15.60;99.90
12827;DHT22;66927;48.812;9.118;2023-05-10T12:12:44;15.70;99.90
12827;DHT22;66927;48.812;9.118;2023-05-10T12:15:19;15.90;99.90
12827;DHT22;66927;48.812;9.118;2023-05-10T12:17:45;16.00;99.90
12827;DHT22;66927;48.812;9.118;2023-05-10T12:20:22;16.10;99.90
12827;DHT22;66927;48.812;9.118;2023-05-10T12:22:55;16.20;99.90
12827;DHT22;66927;48.812;9.118;2023-05-10T12:25:30;16.20;99.90
12827;DHT22;66927;48.812;9.118;2023-05-10T12:27:58;16.20;99.90
12827;DHT22;66927;48.812;9.118;2023-05-10T12:30:30;16.20;99.90
12827;DHT22;66927;48.812;9.118;2023-05-10T12:33:02;16.10;99.90
12827;DHT22;66927;48.812;9.118;2023-05-10T12:35:32;16.20;99.90
12827;DHT22;66927;48.812;9.118;2023-05-10T12:37:58;16.20;99.90
12827;DHT22;66927;48.812;9.118;2023-05-10T12:40:24;16.30;99.90
12827;DHT22;66927;48.812;9.118;2023-05-10T12:42:50;16.30;99.90
12827;DHT22;66927;48.812;9.118;2023-05-10T12:45:17;16.40;99.90
12827;DHT22;66927;48.812;9.118;2023-05-10T12:47:43;16.30;99.90
12827;DHT22;66927;48.812;9.118;2023-05-10T12:50:09;16.40;99.90
12827;DHT22;66927;48.812;9.118;2023-05-10T12:52:35;16.40;99.90
12827;DHT22;66927;48.812;9.118;2023-05-10T12:55:01;16.50;99.90
12827;DHT22;66927;48.812;9.118;2023-05-10T12:57:29;16.30;99.90
12827;DHT22;66927;48.812;9.118;2023-05-10T12:59:55;16.30;99.90
12827;DHT22;66927;48.812;9.118;2023-05-10T13:02:21;16.30;99.90
12827;DHT22;66927;48.812;9.118;2023-05-10T13:04:48;16.30;99.90
12827;DHT22;66927;48.812;9.118;2023-05-10T13:07:14;16.20;99.90
12827;DHT22;66927;48.812;9.118;2023-05-10T13:09:40;16.20;99.90
12827;DHT22;66927;48.812;9.118;2023-05-10T13:12:06;16.10;99.90
12827;DHT22;66927;48.812;9.118;2023-05-10T13:14:32;16.10;99.90
12827;DHT22;66927;48.812;9.118;2023-05-10T13:16:57;16.10;99.90
12827;DHT22;66927;48.812;9.118;2023-05-10T13:19:24;16.10;99.90
12827;DHT22;66927;48.812;9.118;2023-05-10T13:21:49;16.20;99.90
12827;DHT22;66927;48.812;9.118;2023-05-10T13:24:15;16.20;99.90
12827;DHT22;66927;48.812;9.118;2023-05-10T13:26:42;16.20;99.90
12827;DHT22;66927;48.812;9.118;2023-05-10T13:29:09;16.20;99.90
12827;DHT22;66927;48.812;9.118;2023-05-10T13:31:35;16.20;99.90
12827;DHT22;66927;48.812;9.118;2023-05-10T13:34:01;16.10;99.90
12827;DHT22;66927;48.812;9.118;2023-05-10T13:36:28;16.10;99.90
12827;DHT22;66927;48.812;9.118;2023-05-10T13:38:53;16.10;99.90
12827;DHT22;66927;48.812;9.118;2023-05-10T13:41:19;16.20;99.90
12827;DHT22;66927;48.812;9.118;2023-05-10T13:43:45;16.10;99.90
12827;DHT22;66927;48.812;9.118;2023-05-10T13:46:10;16.10;99.90
12827;DHT22;66927;48.812;9.118;2023-05-10T13:48:36;16.20;99.90
12827;DHT22;66927;48.812;9.118;2023-05-10T13:51:04;16.10;99.90
12827;DHT22;66927;48.812;9.118;2023-05-10T13:53:30;16.10;99.90
12827;DHT22;66927;48.812;9.118;2023-05-10T13:55:56;16.00;99.90
12827;DHT22;66927;48.812;9.118;2023-05-10T13:58:22;16.00;99.90
12827;DHT22;66927;48.812;9.118;2023-05-10T14:00:48;16.10;99.90
12827;DHT22;66927;48.812;9.118;2023-05-10T14:03:14;16.20;99.90
12827;DHT22;66927;48.812;9.118;2023-05-10T14:05:40;16.30;99.90
12827;DHT22;66927;48.812;9.118;2023-05-10T14:08:05;16.30;99.90
12827;DHT22;66927;48.812;9.118;2023-05-10T14:10:32;16.30;99.90
12827;DHT22;66927;48.812;9.118;2023-05-10T14:12:58;16.20;99.90
12827;DHT22;66927;48.812;9.118;2023-05-10T14:15:24;16.20;99.90
12827;DHT22;66927;48.812;9.118;2023-05-10T14:17:50;16.20;99.90
12827;DHT22;66927;48.812;9.118;2023-05-10T14:20:15;16.20;99.90
12827;DHT22;66927;48.812;9.118;2023-05-10T14:22:41;16.10;99.90
12827;DHT22;66927;48.812;9.118;2023-05-10T14:25:07;16.10;99.90
12827;DHT22;66927;48.812;9.118;2023-05-10T14:27:33;16.20;99.90
12827;DHT22;66927;48.812;9.118;2023-05-10T14:29:59;16.20;99.90
12827;DHT22;66927;48.812;9.118;2023-05-10T14:32:25;16.20;99.90
12827;DHT22;66927;48.812;9.118;2023-05-10T14:34:52;16.20;99.90
12827;DHT22;66927;48.812;9.118;2023-05-10T14:37:18;16.30;99.90
12827;DHT22;66927;48.812;9.118;2023-05-10T14:39:45;16.30;99.90
12827;DHT22;66927;48.812;9.118;2023-05-10T14:42:11;16.30;99.90
12827;DHT22;66927;48.812;9.118;2023-05-10T14:44:37;16.40;99.90
12827;DHT22;66927;48.812;9.118;2023-05-10T14:47:08;16.40;99.90
12827;DHT22;66927;48.812;9.118;2023-05-10T14:49:34;16.50;99.90
12827;DHT22;66927;48.812;9.118;2023-05-10T14:52:00;16.50;99.90
12827;DHT22;66927;48.812;9.118;2023-05-10T14:54:25;16.60;99.90
12827;DHT22;66927;48.812;9.118;2023-05-10T14:56:52;16.50;99.90
12827;DHT22;66927;48.812;9.118;2023-05-10T14:59:18;16.50;99.90
12827;DHT22;66927;48.812;9.118;2023-05-10T15:01:44;16.50;99.90
12827;DHT22;66927;48.812;9.118;2023-05-10T15:04:09;16.50;99.90
12827;DHT22;66927;48.812;9.118;2023-05-10T15:06:35;16.40;99.90
12827;DHT22;66927;48.812;9.118;2023-05-10T15:09:02;16.50;99.90
12827;DHT22;66927;48.812;9.118;2023-05-10T15:11:32;16.50;99.90
12827;DHT22;66927;48.812;9.118;2023-05-10T15:13:57;16.60;99.90
12827;DHT22;66927;48.812;9.118;2023-05-10T15:16:24;16.60;99.90
12827;DHT22;66927;48.812;9.118;2023-05-10T15:18:52;16.60;99.90
12827;DHT22;66927;48.812;9.118;2023-05-10T15:21:21;16.70;99.90
12827;DHT22;66927;48.812;9.118;2023-05-10T15:23:47;16.60;99.90
12827;DHT22;66927;48.812;9.118;2023-05-10T15:26:14;16.80;99.90
12827;DHT22;66927;48.812;9.118;2023-05-10T15:28:40;16.70;99.90
12827;DHT22;66927;48.812;9.118;2023-05-10T15:31:06;16.80;99.90
12827;DHT22;66927;48.812;9.118;2023-05-10T15:33:33;16.80;99.90
12827;DHT22;66927;48.812;9.118;2023-05-10T15:36:00;16.80;99.90
12827;DHT22;66927;48.812;9.118;2023-05-10T15:38:25;16.70;99.90
12827;DHT22;66927;48.812;9.118;2023-05-10T15:40:56;16.60;99.90
12827;DHT22;66927;48.812;9.118;2023-05-10T15:43:22;16.60;99.90
12827;DHT22;66927;48.812;9.118;2023-05-10T15:45:48;16.60;99.90
12827;DHT22;66927;48.812;9.118;2023-05-10T15:48:13;16.50;99.90
12827;DHT22;66927;48.812;9.118;2023-05-10T15:50:39;16.40;99.90
12827;DHT22;66927;48.812;9.118;2023-05-10T15:53:06;16.50;99.90
12827;DHT22;66927;48.812;9.118;2023-05-10T15:55:33;16.50;99.90
12827;DHT22;66927;48.812;9.118;2023-05-10T15:57:59;16.40;99.90
12827;DHT22;66927;48.812;9.118;2023-05-10T16:00:25;16.30;99.90
12827;DHT22;66927;48.812;9.118;2023-05-10T16:02:51;16.30;99.90
12827;DHT22;66927;48.812;9.118;2023-05-10T16:05:18;16.30;99.90
12827;DHT22;66927;48.812;9.118;2023-05-10T16:07:44;16.30;99.90
12827;DHT22;66927;48.812;9.118;2023-05-10T16:10:11;16.40;99.90
12827;DHT22;66927;48.812;9.118;2023-05-10T16:12:37;16.40;99.90